Pagina principale
METAR-TAF:

METAR-TAF

Aeroporti :

Piattaforma petrolifera

Euro, Paesi Bassi

latitudine: 51-59-52N, longitudine: 3-16-30E, altezza: 18 m

Osservazione

Il bollettino è stato emesso 13 minuti fa, alle 06:55 UTC
Vento 20 kt da nord/nord-est
Temperature 14°C
Umidità 77%
Pressione 1030 hPa
Visibilità 10 km o più

METAR: EHSA 270655Z AUTO 03020KT 9999 ///////// 14/10 Q1030 W14/H16

Ora: 09:08 (07:08 UTC)


TAF: mancante

Osservazioni e previsioni meteorologiche di più di 4000 aeroporti (messaggi METAR e TAF).

Le stazioni disponibili sono rappresentate dai dischi gialli e rossi sulla carta.

Puntare il mouse per vedere il nome della stazione.

Clicca sopra per visualizzare le osservazioni e previsioni meteorologiche.

Per cambiare la mappa : fare clic sui pulsanti verdi con una croce nera per ingrandire, il pulsante verde con un trattino per diminuire, o sulla freccia verde per le mappe adiacenti.


METAR-TAF: